sensor_id;sensor_type;location;lat;lon;timestamp;temperature;humidity
75931;DHT22;64609;47.052;15.462;2023-04-25T00:00:26;14.00;76.10
75931;DHT22;64609;47.052;15.462;2023-04-25T00:02:52;13.90;76.10
75931;DHT22;64609;47.052;15.462;2023-04-25T00:05:17;13.80;76.10
75931;DHT22;64609;47.052;15.462;2023-04-25T00:07:44;13.80;76.30
75931;DHT22;64609;47.052;15.462;2023-04-25T00:10:11;13.70;76.60
75931;DHT22;64609;47.052;15.462;2023-04-25T00:12:37;13.80;76.70
75931;DHT22;64609;47.052;15.462;2023-04-25T00:15:04;13.80;76.70
75931;DHT22;64609;47.052;15.462;2023-04-25T00:17:30;13.90;76.70
75931;DHT22;64609;47.052;15.462;2023-04-25T00:19:56;13.80;76.60
75931;DHT22;64609;47.052;15.462;2023-04-25T00:22:23;13.80;76.70
75931;DHT22;64609;47.052;15.462;2023-04-25T00:24:49;13.90;76.80
75931;DHT22;64609;47.052;15.462;2023-04-25T00:27:15;13.90;76.80
75931;DHT22;64609;47.052;15.462;2023-04-25T00:29:41;13.90;76.50
75931;DHT22;64609;47.052;15.462;2023-04-25T00:32:07;13.90;76.50
75931;DHT22;64609;47.052;15.462;2023-04-25T00:34:32;13.80;76.50
75931;DHT22;64609;47.052;15.462;2023-04-25T00:36:58;13.80;76.70
75931;DHT22;64609;47.052;15.462;2023-04-25T00:39:23;13.90;76.80
75931;DHT22;64609;47.052;15.462;2023-04-25T00:41:50;13.80;76.50
75931;DHT22;64609;47.052;15.462;2023-04-25T00:44:19;13.80;77.70
75931;DHT22;64609;47.052;15.462;2023-04-25T00:46:47;13.80;76.70
75931;DHT22;64609;47.052;15.462;2023-04-25T00:49:13;13.90;76.70
75931;DHT22;64609;47.052;15.462;2023-04-25T00:51:41;13.90;76.70
75931;DHT22;64609;47.052;15.462;2023-04-25T00:54:07;13.90;76.50
75931;DHT22;64609;47.052;15.462;2023-04-25T00:56:33;13.90;76.40
75931;DHT22;64609;47.052;15.462;2023-04-25T00:58:58;13.90;76.40
75931;DHT22;64609;47.052;15.462;2023-04-25T01:01:24;13.90;76.40
75931;DHT22;64609;47.052;15.462;2023-04-25T01:03:50;13.90;76.10
75931;DHT22;64609;47.052;15.462;2023-04-25T01:06:16;13.90;76.20
75931;DHT22;64609;47.052;15.462;2023-04-25T01:08:42;13.90;76.20
75931;DHT22;64609;47.052;15.462;2023-04-25T01:11:08;13.80;75.90
75931;DHT22;64609;47.052;15.462;2023-04-25T01:13:34;13.80;76.10
75931;DHT22;64609;47.052;15.462;2023-04-25T01:16:01;13.70;76.00
75931;DHT22;64609;47.052;15.462;2023-04-25T01:18:27;13.70;75.80
75931;DHT22;64609;47.052;15.462;2023-04-25T01:20:53;13.70;75.80
75931;DHT22;64609;47.052;15.462;2023-04-25T01:23:20;13.70;75.60
75931;DHT22;64609;47.052;15.462;2023-04-25T01:25:47;13.70;76.50
75931;DHT22;64609;47.052;15.462;2023-04-25T01:28:13;13.60;75.50
75931;DHT22;64609;47.052;15.462;2023-04-25T01:30:39;13.60;75.50
75931;DHT22;64609;47.052;15.462;2023-04-25T01:33:05;13.50;75.50
75931;DHT22;64609;47.052;15.462;2023-04-25T01:35:31;13.50;75.40
75931;DHT22;64609;47.052;15.462;2023-04-25T01:37:57;13.50;75.40
75931;DHT22;64609;47.052;15.462;2023-04-25T01:40:24;13.50;75.40
75931;DHT22;64609;47.052;15.462;2023-04-25T01:42:50;13.50;75.20
75931;DHT22;64609;47.052;15.462;2023-04-25T01:45:17;13.40;75.00
75931;DHT22;64609;47.052;15.462;2023-04-25T01:47:43;13.30;74.90
75931;DHT22;64609;47.052;15.462;2023-04-25T01:50:09;13.30;75.00
75931;DHT22;64609;47.052;15.462;2023-04-25T01:52:36;13.20;74.90
75931;DHT22;64609;47.052;15.462;2023-04-25T01:55:02;13.20;74.80
75931;DHT22;64609;47.052;15.462;2023-04-25T01:57:28;13.20;74.70
75931;DHT22;64609;47.052;15.462;2023-04-25T01:59:59;13.20;74.80
75931;DHT22;64609;47.052;15.462;2023-04-25T02:02:25;13.20;74.70
75931;DHT22;64609;47.052;15.462;2023-04-25T02:04:51;13.10;74.50
75931;DHT22;64609;47.052;15.462;2023-04-25T02:07:17;13.00;74.50
75931;DHT22;64609;47.052;15.462;2023-04-25T02:09:42;13.00;74.50
75931;DHT22;64609;47.052;15.462;2023-04-25T02:12:10;13.00;74.40
75931;DHT22;64609;47.052;15.462;2023-04-25T02:14:35;12.90;74.40
75931;DHT22;64609;47.052;15.462;2023-04-25T02:17:01;12.90;74.40
75931;DHT22;64609;47.052;15.462;2023-04-25T02:19:27;12.80;74.20
75931;DHT22;64609;47.052;15.462;2023-04-25T02:21:52;12.90;74.20
75931;DHT22;64609;47.052;15.462;2023-04-25T02:24:18;12.80;74.00
75931;DHT22;64609;47.052;15.462;2023-04-25T02:26:44;12.70;73.90
75931;DHT22;64609;47.052;15.462;2023-04-25T02:29:10;12.70;74.00
75931;DHT22;64609;47.052;15.462;2023-04-25T02:31:35;12.70;74.10
75931;DHT22;64609;47.052;15.462;2023-04-25T02:34:01;12.70;73.70
75931;DHT22;64609;47.052;15.462;2023-04-25T02:36:27;12.60;73.70
75931;DHT22;64609;47.052;15.462;2023-04-25T02:38:53;12.50;73.50
75931;DHT22;64609;47.052;15.462;2023-04-25T02:41:18;12.50;73.70
75931;DHT22;64609;47.052;15.462;2023-04-25T02:43:46;12.50;73.80
75931;DHT22;64609;47.052;15.462;2023-04-25T02:46:11;12.50;73.70
75931;DHT22;64609;47.052;15.462;2023-04-25T02:48:37;12.40;73.60
75931;DHT22;64609;47.052;15.462;2023-04-25T02:51:02;12.40;73.60
75931;DHT22;64609;47.052;15.462;2023-04-25T02:53:28;12.30;73.60
75931;DHT22;64609;47.052;15.462;2023-04-25T02:55:54;12.30;73.40
75931;DHT22;64609;47.052;15.462;2023-04-25T02:58:19;12.30;73.40
75931;DHT22;64609;47.052;15.462;2023-04-25T03:00:45;12.20;72.90
75931;DHT22;64609;47.052;15.462;2023-04-25T03:03:11;12.10;73.00
75931;DHT22;64609;47.052;15.462;2023-04-25T03:05:36;12.10;73.20
75931;DHT22;64609;47.052;15.462;2023-04-25T03:08:02;12.00;73.00
75931;DHT22;64609;47.052;15.462;2023-04-25T03:10:28;12.00;73.00
75931;DHT22;64609;47.052;15.462;2023-04-25T03:12:53;11.90;73.00
75931;DHT22;64609;47.052;15.462;2023-04-25T03:15:19;12.00;73.30
75931;DHT22;64609;47.052;15.462;2023-04-25T03:17:45;12.00;73.60
75931;DHT22;64609;47.052;15.462;2023-04-25T03:20:11;12.00;73.70
75931;DHT22;64609;47.052;15.462;2023-04-25T03:22:37;12.00;73.80
75931;DHT22;64609;47.052;15.462;2023-04-25T03:25:03;12.00;74.00
75931;DHT22;64609;47.052;15.462;2023-04-25T03:27:29;12.10;74.10
75931;DHT22;64609;47.052;15.462;2023-04-25T03:29:54;12.10;74.10
75931;DHT22;64609;47.052;15.462;2023-04-25T03:32:20;12.10;74.20
75931;DHT22;64609;47.052;15.462;2023-04-25T03:34:46;11.90;74.20
75931;DHT22;64609;47.052;15.462;2023-04-25T03:37:11;12.00;74.50
75931;DHT22;64609;47.052;15.462;2023-04-25T03:39:37;12.00;74.60
75931;DHT22;64609;47.052;15.462;2023-04-25T03:42:03;12.00;74.70
75931;DHT22;64609;47.052;15.462;2023-04-25T03:44:29;12.10;74.80
75931;DHT22;64609;47.052;15.462;2023-04-25T03:46:55;12.10;75.00
75931;DHT22;64609;47.052;15.462;2023-04-25T03:49:20;12.10;75.00
75931;DHT22;64609;47.052;15.462;2023-04-25T03:51:46;12.00;75.50
75931;DHT22;64609;47.052;15.462;2023-04-25T03:54:12;12.10;75.70
75931;DHT22;64609;47.052;15.462;2023-04-25T03:56:37;12.10;75.80
75931;DHT22;64609;47.052;15.462;2023-04-25T03:59:03;12.10;76.00
75931;DHT22;64609;47.052;15.462;2023-04-25T04:01:28;12.20;76.10
75931;DHT22;64609;47.052;15.462;2023-04-25T04:03:54;12.10;76.20
75931;DHT22;64609;47.052;15.462;2023-04-25T04:06:20;12.20;76.50
75931;DHT22;64609;47.052;15.462;2023-04-25T04:08:46;12.20;76.70
75931;DHT22;64609;47.052;15.462;2023-04-25T04:11:12;12.20;76.80
75931;DHT22;64609;47.052;15.462;2023-04-25T04:13:37;12.20;76.90
75931;DHT22;64609;47.052;15.462;2023-04-25T04:16:03;12.30;77.10
75931;DHT22;64609;47.052;15.462;2023-04-25T04:18:30;12.30;76.80
75931;DHT22;64609;47.052;15.462;2023-04-25T04:20:55;12.20;76.60
75931;DHT22;64609;47.052;15.462;2023-04-25T04:23:23;12.10;76.80
75931;DHT22;64609;47.052;15.462;2023-04-25T04:25:49;12.10;77.10
75931;DHT22;64609;47.052;15.462;2023-04-25T04:28:14;12.00;77.20
75931;DHT22;64609;47.052;15.462;2023-04-25T04:30:41;12.10;77.60
75931;DHT22;64609;47.052;15.462;2023-04-25T04:33:08;12.20;77.60
75931;DHT22;64609;47.052;15.462;2023-04-25T04:35:33;12.20;77.10
75931;DHT22;64609;47.052;15.462;2023-04-25T04:37:59;12.30;77.10
75931;DHT22;64609;47.052;15.462;2023-04-25T04:40:25;12.30;77.30
75931;DHT22;64609;47.052;15.462;2023-04-25T04:42:51;12.40;77.00
75931;DHT22;64609;47.052;15.462;2023-04-25T04:45:17;12.40;77.10
75931;DHT22;64609;47.052;15.462;2023-04-25T04:47:43;12.40;77.00
75931;DHT22;64609;47.052;15.462;2023-04-25T04:50:10;12.40;76.90
75931;DHT22;64609;47.052;15.462;2023-04-25T04:52:36;12.50;76.80
75931;DHT22;64609;47.052;15.462;2023-04-25T04:55:03;12.50;76.70
75931;DHT22;64609;47.052;15.462;2023-04-25T04:57:29;12.50;77.00
75931;DHT22;64609;47.052;15.462;2023-04-25T04:59:55;12.50;76.20
75931;DHT22;64609;47.052;15.462;2023-04-25T05:02:21;12.50;76.00
75931;DHT22;64609;47.052;15.462;2023-04-25T05:04:46;12.50;75.80
75931;DHT22;64609;47.052;15.462;2023-04-25T05:07:12;12.60;75.90
75931;DHT22;64609;47.052;15.462;2023-04-25T05:09:39;12.60;75.50
75931;DHT22;64609;47.052;15.462;2023-04-25T05:12:05;12.60;75.30
75931;DHT22;64609;47.052;15.462;2023-04-25T05:14:30;12.70;75.40
75931;DHT22;64609;47.052;15.462;2023-04-25T05:16:56;12.60;75.30
75931;DHT22;64609;47.052;15.462;2023-04-25T05:19:22;12.70;75.00
75931;DHT22;64609;47.052;15.462;2023-04-25T05:21:49;12.70;74.90
75931;DHT22;64609;47.052;15.462;2023-04-25T05:24:15;12.70;74.70
75931;DHT22;64609;47.052;15.462;2023-04-25T05:26:41;12.70;74.40
75931;DHT22;64609;47.052;15.462;2023-04-25T05:29:06;12.80;74.40
75931;DHT22;64609;47.052;15.462;2023-04-25T05:31:32;12.70;74.20
75931;DHT22;64609;47.052;15.462;2023-04-25T05:33:58;12.70;74.20
75931;DHT22;64609;47.052;15.462;2023-04-25T05:36:24;12.70;74.40
75931;DHT22;64609;47.052;15.462;2023-04-25T05:38:49;12.70;74.30
75931;DHT22;64609;47.052;15.462;2023-04-25T05:41:15;12.70;74.50
75931;DHT22;64609;47.052;15.462;2023-04-25T05:43:41;12.80;74.70
75931;DHT22;64609;47.052;15.462;2023-04-25T05:46:11;12.90;74.30
75931;DHT22;64609;47.052;15.462;2023-04-25T05:48:37;12.90;73.90
75931;DHT22;64609;47.052;15.462;2023-04-25T05:51:02;12.90;73.50
75931;DHT22;64609;47.052;15.462;2023-04-25T05:53:28;12.90;73.50
75931;DHT22;64609;47.052;15.462;2023-04-25T05:55:54;13.00;73.80
75931;DHT22;64609;47.052;15.462;2023-04-25T05:58:19;13.00;73.70
75931;DHT22;64609;47.052;15.462;2023-04-25T06:00:45;13.00;73.30
75931;DHT22;64609;47.052;15.462;2023-04-25T06:03:11;12.90;72.80
75931;DHT22;64609;47.052;15.462;2023-04-25T06:05:41;12.90;72.90
75931;DHT22;64609;47.052;15.462;2023-04-25T06:08:06;12.90;73.00
75931;DHT22;64609;47.052;15.462;2023-04-25T06:10:32;12.80;72.70
75931;DHT22;64609;47.052;15.462;2023-04-25T06:12:57;12.80;72.90
75931;DHT22;64609;47.052;15.462;2023-04-25T06:15:23;12.80;73.40
75931;DHT22;64609;47.052;15.462;2023-04-25T06:17:49;12.80;73.40
75931;DHT22;64609;47.052;15.462;2023-04-25T06:20:14;12.80;73.60
75931;DHT22;64609;47.052;15.462;2023-04-25T06:22:40;12.90;74.20
75931;DHT22;64609;47.052;15.462;2023-04-25T06:25:06;13.00;74.40
75931;DHT22;64609;47.052;15.462;2023-04-25T06:27:33;13.10;73.60
75931;DHT22;64609;47.052;15.462;2023-04-25T06:29:58;13.20;73.50
75931;DHT22;64609;47.052;15.462;2023-04-25T06:32:24;13.30;73.50
75931;DHT22;64609;47.052;15.462;2023-04-25T06:34:51;13.40;73.30
75931;DHT22;64609;47.052;15.462;2023-04-25T06:37:17;13.50;73.80
75931;DHT22;64609;47.052;15.462;2023-04-25T06:39:42;13.60;73.20
75931;DHT22;64609;47.052;15.462;2023-04-25T06:42:08;13.60;72.80
75931;DHT22;64609;47.052;15.462;2023-04-25T06:44:34;13.60;72.30
75931;DHT22;64609;47.052;15.462;2023-04-25T06:46:59;13.70;72.00
75931;DHT22;64609;47.052;15.462;2023-04-25T06:49:25;13.90;71.90
75931;DHT22;64609;47.052;15.462;2023-04-25T06:51:50;14.00;70.90
75931;DHT22;64609;47.052;15.462;2023-04-25T06:54:16;14.00;70.10
75931;DHT22;64609;47.052;15.462;2023-04-25T06:56:42;14.10;71.00
75931;DHT22;64609;47.052;15.462;2023-04-25T06:59:08;14.30;71.60
75931;DHT22;64609;47.052;15.462;2023-04-25T07:01:34;14.60;71.20
75931;DHT22;64609;47.052;15.462;2023-04-25T07:04:00;14.80;70.80
75931;DHT22;64609;47.052;15.462;2023-04-25T07:06:26;14.90;70.60
75931;DHT22;64609;47.052;15.462;2023-04-25T07:08:53;15.10;69.50
75931;DHT22;64609;47.052;15.462;2023-04-25T07:11:19;15.20;68.50
75931;DHT22;64609;47.052;15.462;2023-04-25T07:13:44;15.30;66.90
75931;DHT22;64609;47.052;15.462;2023-04-25T07:16:10;15.50;66.60
75931;DHT22;64609;47.052;15.462;2023-04-25T07:18:36;15.60;66.30
75931;DHT22;64609;47.052;15.462;2023-04-25T07:21:01;15.60;62.00
75931;DHT22;64609;47.052;15.462;2023-04-25T07:23:27;15.60;64.20
75931;DHT22;64609;47.052;15.462;2023-04-25T07:25:53;15.80;65.10
75931;DHT22;64609;47.052;15.462;2023-04-25T07:28:18;16.00;64.90
75931;DHT22;64609;47.052;15.462;2023-04-25T07:30:44;16.10;63.90
75931;DHT22;64609;47.052;15.462;2023-04-25T07:33:10;16.20;61.80
75931;DHT22;64609;47.052;15.462;2023-04-25T07:35:35;16.30;62.20
75931;DHT22;64609;47.052;15.462;2023-04-25T07:38:02;16.40;62.30
75931;DHT22;64609;47.052;15.462;2023-04-25T07:40:28;16.60;62.50
75931;DHT22;64609;47.052;15.462;2023-04-25T07:42:54;16.70;61.10
75931;DHT22;64609;47.052;15.462;2023-04-25T07:45:19;16.90;61.00
75931;DHT22;64609;47.052;15.462;2023-04-25T07:47:45;16.90;59.40
75931;DHT22;64609;47.052;15.462;2023-04-25T07:50:11;17.10;58.90
75931;DHT22;64609;47.052;15.462;2023-04-25T07:52:37;17.20;58.40
75931;DHT22;64609;47.052;15.462;2023-04-25T07:55:03;17.40;56.90
75931;DHT22;64609;47.052;15.462;2023-04-25T07:57:29;17.50;56.90
75931;DHT22;64609;47.052;15.462;2023-04-25T07:59:55;17.60;55.50
75931;DHT22;64609;47.052;15.462;2023-04-25T08:02:20;17.70;52.70
75931;DHT22;64609;47.052;15.462;2023-04-25T08:04:46;17.80;52.50
75931;DHT22;64609;47.052;15.462;2023-04-25T08:07:12;18.00;53.50
75931;DHT22;64609;47.052;15.462;2023-04-25T08:09:37;18.30;49.50
75931;DHT22;64609;47.052;15.462;2023-04-25T08:12:04;18.40;46.90
75931;DHT22;64609;47.052;15.462;2023-04-25T08:14:30;18.50;46.40
75931;DHT22;64609;47.052;15.462;2023-04-25T08:17:02;18.50;48.70
75931;DHT22;64609;47.052;15.462;2023-04-25T08:19:29;18.60;50.00
75931;DHT22;64609;47.052;15.462;2023-04-25T08:21:55;18.90;46.50
75931;DHT22;64609;47.052;15.462;2023-04-25T08:24:22;19.10;45.50
75931;DHT22;64609;47.052;15.462;2023-04-25T08:26:48;19.10;44.70
75931;DHT22;64609;47.052;15.462;2023-04-25T08:29:14;19.30;44.50
75931;DHT22;64609;47.052;15.462;2023-04-25T08:31:39;19.40;43.50
75931;DHT22;64609;47.052;15.462;2023-04-25T08:34:05;19.50;43.00
75931;DHT22;64609;47.052;15.462;2023-04-25T08:36:31;19.60;42.20
75931;DHT22;64609;47.052;15.462;2023-04-25T08:38:58;19.70;42.00
75931;DHT22;64609;47.052;15.462;2023-04-25T08:41:24;19.90;41.60
75931;DHT22;64609;47.052;15.462;2023-04-25T08:43:51;20.00;41.20
75931;DHT22;64609;47.052;15.462;2023-04-25T08:46:20;20.10;40.70
75931;DHT22;64609;47.052;15.462;2023-04-25T08:48:46;20.10;40.00
75931;DHT22;64609;47.052;15.462;2023-04-25T08:51:36;20.10;41.00
75931;DHT22;64609;47.052;15.462;2023-04-25T08:54:11;20.20;40.10
75931;DHT22;64609;47.052;15.462;2023-04-25T08:56:43;20.10;39.90
75931;DHT22;64609;47.052;15.462;2023-04-25T08:59:10;20.10;39.70
75931;DHT22;64609;47.052;15.462;2023-04-25T09:01:36;20.10;39.60
75931;DHT22;64609;47.052;15.462;2023-04-25T09:04:02;20.10;40.40
75931;DHT22;64609;47.052;15.462;2023-04-25T09:06:29;20.00;39.80
75931;DHT22;64609;47.052;15.462;2023-04-25T09:09:04;20.10;39.40
75931;DHT22;64609;47.052;15.462;2023-04-25T09:11:31;20.40;40.20
75931;DHT22;64609;47.052;15.462;2023-04-25T09:14:19;20.70;40.30
75931;DHT22;64609;47.052;15.462;2023-04-25T09:16:57;20.80;36.70
75931;DHT22;64609;47.052;15.462;2023-04-25T09:21:54;20.40;37.30
75931;DHT22;64609;47.052;15.462;2023-04-25T09:24:42;20.10;37.80
75931;DHT22;64609;47.052;15.462;2023-04-25T09:27:10;20.00;37.20
75931;DHT22;64609;47.052;15.462;2023-04-25T09:29:38;19.80;37.30
75931;DHT22;64609;47.052;15.462;2023-04-25T09:32:22;19.80;37.70
75931;DHT22;64609;47.052;15.462;2023-04-25T09:34:49;19.90;37.80
75931;DHT22;64609;47.052;15.462;2023-04-25T09:37:20;20.00;38.40
75931;DHT22;64609;47.052;15.462;2023-04-25T09:39:54;20.10;37.80
75931;DHT22;64609;47.052;15.462;2023-04-25T09:42:24;20.20;38.20
75931;DHT22;64609;47.052;15.462;2023-04-25T09:44:55;20.40;37.80
75931;DHT22;64609;47.052;15.462;2023-04-25T09:47:23;20.40;37.70
75931;DHT22;64609;47.052;15.462;2023-04-25T09:49:49;20.60;37.70
75931;DHT22;64609;47.052;15.462;2023-04-25T09:52:17;20.70;36.80
75931;DHT22;64609;47.052;15.462;2023-04-25T09:54:44;21.00;37.30
75931;DHT22;64609;47.052;15.462;2023-04-25T09:57:15;21.40;36.70
75931;DHT22;64609;47.052;15.462;2023-04-25T09:59:46;21.70;35.10
75931;DHT22;64609;47.052;15.462;2023-04-25T10:02:17;22.30;35.30
75931;DHT22;64609;47.052;15.462;2023-04-25T10:04:47;22.60;34.20
75931;DHT22;64609;47.052;15.462;2023-04-25T10:07:13;22.90;34.30
75931;DHT22;64609;47.052;15.462;2023-04-25T10:09:39;22.80;34.80
75931;DHT22;64609;47.052;15.462;2023-04-25T10:12:06;23.00;34.70
75931;DHT22;64609;47.052;15.462;2023-04-25T10:14:33;23.00;32.70
75931;DHT22;64609;47.052;15.462;2023-04-25T10:16:59;22.90;33.20
75931;DHT22;64609;47.052;15.462;2023-04-25T10:19:26;23.10;34.30
75931;DHT22;64609;47.052;15.462;2023-04-25T10:22:32;23.40;33.90
75931;DHT22;64609;47.052;15.462;2023-04-25T10:25:00;23.80;31.80
75931;DHT22;64609;47.052;15.462;2023-04-25T10:27:29;23.70;31.40
75931;DHT22;64609;47.052;15.462;2023-04-25T10:30:10;23.90;32.80
75931;DHT22;64609;47.052;15.462;2023-04-25T10:32:38;24.60;32.50
75931;DHT22;64609;47.052;15.462;2023-04-25T10:35:18;25.30;31.70
75931;DHT22;64609;47.052;15.462;2023-04-25T10:38:09;25.90;29.30
75931;DHT22;64609;47.052;15.462;2023-04-25T10:40:35;26.20;30.00
75931;DHT22;64609;47.052;15.462;2023-04-25T10:45:54;26.60;29.90
75931;DHT22;64609;47.052;15.462;2023-04-25T10:48:26;26.60;29.80
75931;DHT22;64609;47.052;15.462;2023-04-25T10:51:12;26.50;29.50
75931;DHT22;64609;47.052;15.462;2023-04-25T10:53:41;26.30;29.60
75931;DHT22;64609;47.052;15.462;2023-04-25T10:56:27;25.80;29.50
75931;DHT22;64609;47.052;15.462;2023-04-25T11:01:37;24.60;30.10
75931;DHT22;64609;47.052;15.462;2023-04-25T11:04:03;24.00;30.20
75931;DHT22;64609;47.052;15.462;2023-04-25T11:09:00;23.40;30.80
75931;DHT22;64609;47.052;15.462;2023-04-25T11:11:26;23.60;31.30
75931;DHT22;64609;47.052;15.462;2023-04-25T11:13:52;23.70;30.90
75931;DHT22;64609;47.052;15.462;2023-04-25T11:16:18;23.40;29.60
75931;DHT22;64609;47.052;15.462;2023-04-25T11:18:44;23.00;30.90
75931;DHT22;64609;47.052;15.462;2023-04-25T11:21:11;23.00;31.80
75931;DHT22;64609;47.052;15.462;2023-04-25T11:23:37;23.10;31.40
75931;DHT22;64609;47.052;15.462;2023-04-25T11:26:03;23.00;31.70
75931;DHT22;64609;47.052;15.462;2023-04-25T11:28:29;22.70;31.60
75931;DHT22;64609;47.052;15.462;2023-04-25T11:30:56;22.50;32.10
75931;DHT22;64609;47.052;15.462;2023-04-25T11:33:25;22.30;32.60
75931;DHT22;64609;47.052;15.462;2023-04-25T11:35:55;22.30;33.30
75931;DHT22;64609;47.052;15.462;2023-04-25T11:38:22;22.20;33.50
75931;DHT22;64609;47.052;15.462;2023-04-25T11:40:52;22.00;32.90
75931;DHT22;64609;47.052;15.462;2023-04-25T11:43:20;21.80;33.00
75931;DHT22;64609;47.052;15.462;2023-04-25T11:45:50;21.70;34.20
75931;DHT22;64609;47.052;15.462;2023-04-25T11:48:17;21.60;35.10
75931;DHT22;64609;47.052;15.462;2023-04-25T11:50:43;21.60;35.10
75931;DHT22;64609;47.052;15.462;2023-04-25T11:53:09;21.50;34.80
75931;DHT22;64609;47.052;15.462;2023-04-25T11:55:36;21.40;34.30
75931;DHT22;64609;47.052;15.462;2023-04-25T11:58:02;21.30;34.10
75931;DHT22;64609;47.052;15.462;2023-04-25T12:00:29;21.20;34.40
75931;DHT22;64609;47.052;15.462;2023-04-25T12:02:56;21.10;34.20
75931;DHT22;64609;47.052;15.462;2023-04-25T12:05:28;20.90;34.20
75931;DHT22;64609;47.052;15.462;2023-04-25T12:07:54;20.70;34.60
75931;DHT22;64609;47.052;15.462;2023-04-25T12:10:20;20.60;34.70
75931;DHT22;64609;47.052;15.462;2023-04-25T12:12:47;20.40;34.70
75931;DHT22;64609;47.052;15.462;2023-04-25T12:17:49;20.00;34.10
75931;DHT22;64609;47.052;15.462;2023-04-25T12:20:17;19.90;34.30
75931;DHT22;64609;47.052;15.462;2023-04-25T12:22:45;19.70;35.10
75931;DHT22;64609;47.052;15.462;2023-04-25T12:25:57;19.60;35.70
75931;DHT22;64609;47.052;15.462;2023-04-25T12:28:21;19.70;36.70
75931;DHT22;64609;47.052;15.462;2023-04-25T12:30:58;19.90;36.70
75931;DHT22;64609;47.052;15.462;2023-04-25T12:33:25;20.10;36.80
75931;DHT22;64609;47.052;15.462;2023-04-25T12:35:53;20.40;36.90
75931;DHT22;64609;47.052;15.462;2023-04-25T12:40:51;20.80;37.90
75931;DHT22;64609;47.052;15.462;2023-04-25T12:43:16;20.90;36.50
75931;DHT22;64609;47.052;15.462;2023-04-25T12:45:44;21.00;35.70
75931;DHT22;64609;47.052;15.462;2023-04-25T12:48:09;21.10;35.30
75931;DHT22;64609;47.052;15.462;2023-04-25T12:50:35;21.10;35.30
75931;DHT22;64609;47.052;15.462;2023-04-25T12:53:01;21.20;35.70
75931;DHT22;64609;47.052;15.462;2023-04-25T12:55:26;21.30;34.90
75931;DHT22;64609;47.052;15.462;2023-04-25T12:57:52;21.30;34.50
75931;DHT22;64609;47.052;15.462;2023-04-25T13:00:18;21.30;34.30
75931;DHT22;64609;47.052;15.462;2023-04-25T13:02:45;21.20;33.80
75931;DHT22;64609;47.052;15.462;2023-04-25T13:05:12;21.30;34.90
75931;DHT22;64609;47.052;15.462;2023-04-25T13:07:38;21.20;35.60
75931;DHT22;64609;47.052;15.462;2023-04-25T13:10:04;21.20;35.60
75931;DHT22;64609;47.052;15.462;2023-04-25T13:12:31;21.20;37.20
75931;DHT22;64609;47.052;15.462;2023-04-25T13:14:56;21.10;37.80
75931;DHT22;64609;47.052;15.462;2023-04-25T13:17:22;21.00;37.00
75931;DHT22;64609;47.052;15.462;2023-04-25T13:19:48;21.00;37.50
75931;DHT22;64609;47.052;15.462;2023-04-25T13:22:13;21.20;37.40
75931;DHT22;64609;47.052;15.462;2023-04-25T13:24:42;21.30;36.80
75931;DHT22;64609;47.052;15.462;2023-04-25T13:27:07;21.50;36.60
75931;DHT22;64609;47.052;15.462;2023-04-25T13:29:33;21.30;37.30
75931;DHT22;64609;47.052;15.462;2023-04-25T13:32:03;21.10;37.70
75931;DHT22;64609;47.052;15.462;2023-04-25T13:34:29;21.10;38.30
75931;DHT22;64609;47.052;15.462;2023-04-25T13:36:56;21.20;38.40
75931;DHT22;64609;47.052;15.462;2023-04-25T13:39:21;21.20;37.10
75931;DHT22;64609;47.052;15.462;2023-04-25T13:41:47;21.30;38.10
75931;DHT22;64609;47.052;15.462;2023-04-25T13:44:13;21.40;37.80
75931;DHT22;64609;47.052;15.462;2023-04-25T13:46:38;21.50;37.50
75931;DHT22;64609;47.052;15.462;2023-04-25T13:49:04;21.50;37.80
75931;DHT22;64609;47.052;15.462;2023-04-25T13:51:30;21.50;36.30
75931;DHT22;64609;47.052;15.462;2023-04-25T13:53:57;21.40;36.40
75931;DHT22;64609;47.052;15.462;2023-04-25T13:56:23;21.40;36.70
75931;DHT22;64609;47.052;15.462;2023-04-25T13:58:51;21.40;37.20
75931;DHT22;64609;47.052;15.462;2023-04-25T14:01:17;21.40;37.50
75931;DHT22;64609;47.052;15.462;2023-04-25T14:03:44;21.20;37.30
75931;DHT22;64609;47.052;15.462;2023-04-25T14:06:10;21.20;36.20
75931;DHT22;64609;47.052;15.462;2023-04-25T14:08:38;21.20;36.90
75931;DHT22;64609;47.052;15.462;2023-04-25T14:11:04;21.20;35.90
75931;DHT22;64609;47.052;15.462;2023-04-25T14:13:29;21.20;36.20
75931;DHT22;64609;47.052;15.462;2023-04-25T14:15:55;21.10;37.20
75931;DHT22;64609;47.052;15.462;2023-04-25T14:18:21;21.20;37.50
75931;DHT22;64609;47.052;15.462;2023-04-25T14:20:47;21.20;37.50
75931;DHT22;64609;47.052;15.462;2023-04-25T14:23:13;21.20;37.40
75931;DHT22;64609;47.052;15.462;2023-04-25T14:25:39;21.10;36.70
75931;DHT22;64609;47.052;15.462;2023-04-25T14:28:05;21.00;37.20
75931;DHT22;64609;47.052;15.462;2023-04-25T14:30:31;20.90;37.30
75931;DHT22;64609;47.052;15.462;2023-04-25T14:32:57;20.90;37.10
75931;DHT22;64609;47.052;15.462;2023-04-25T14:35:22;20.90;37.30
75931;DHT22;64609;47.052;15.462;2023-04-25T14:37:48;20.80;36.70
75931;DHT22;64609;47.052;15.462;2023-04-25T14:40:14;20.80;36.90
75931;DHT22;64609;47.052;15.462;2023-04-25T14:42:40;20.80;37.00
75931;DHT22;64609;47.052;15.462;2023-04-25T14:45:07;20.90;37.50
75931;DHT22;64609;47.052;15.462;2023-04-25T14:47:36;20.80;37.40
75931;DHT22;64609;47.052;15.462;2023-04-25T14:50:02;20.90;37.40
75931;DHT22;64609;47.052;15.462;2023-04-25T14:52:30;20.90;37.30
75931;DHT22;64609;47.052;15.462;2023-04-25T14:54:56;20.80;37.10
75931;DHT22;64609;47.052;15.462;2023-04-25T14:57:22;20.80;37.10
75931;DHT22;64609;47.052;15.462;2023-04-25T14:59:47;20.60;37.00
75931;DHT22;64609;47.052;15.462;2023-04-25T15:02:13;20.60;37.40
75931;DHT22;64609;47.052;15.462;2023-04-25T15:04:39;20.50;37.30
75931;DHT22;64609;47.052;15.462;2023-04-25T15:07:05;20.40;36.80
75931;DHT22;64609;47.052;15.462;2023-04-25T15:09:30;20.30;37.10
75931;DHT22;64609;47.052;15.462;2023-04-25T15:11:57;20.30;37.70
75931;DHT22;64609;47.052;15.462;2023-04-25T15:14:22;20.30;37.90
75931;DHT22;64609;47.052;15.462;2023-04-25T15:16:48;20.30;38.40
75931;DHT22;64609;47.052;15.462;2023-04-25T15:19:14;20.30;38.50
75931;DHT22;64609;47.052;15.462;2023-04-25T15:21:40;20.30;38.20
75931;DHT22;64609;47.052;15.462;2023-04-25T15:24:06;20.30;39.40
75931;DHT22;64609;47.052;15.462;2023-04-25T15:26:31;20.30;38.40
75931;DHT22;64609;47.052;15.462;2023-04-25T15:28:57;20.30;38.30